createdAt,value
2018-06-18T00:02:12.738Z,80.89
2018-06-18T00:04:41.847Z,80.77
2018-06-18T00:07:10.970Z,80.98
2018-06-18T00:09:40.125Z,80.74
2018-06-18T00:12:09.233Z,80.80
2018-06-18T00:14:38.490Z,80.81
2018-06-18T00:17:07.705Z,80.74
2018-06-18T00:19:36.825Z,80.30
2018-06-18T00:22:07.650Z,81.13
2018-06-18T00:24:36.761Z,81.20
2018-06-18T00:27:06.001Z,81.02
2018-06-18T00:29:35.265Z,81.57
2018-06-18T00:32:04.439Z,81.20
2018-06-18T00:34:33.566Z,81.06
2018-06-18T00:37:02.717Z,81.64
2018-06-18T00:39:31.844Z,81.45
2018-06-18T00:42:00.980Z,82.07
2018-06-18T00:44:30.274Z,81.17
2018-06-18T00:46:59.413Z,81.63
2018-06-18T00:49:28.550Z,81.78
2018-06-18T00:51:57.681Z,81.12
2018-06-18T00:54:26.819Z,80.93
2018-06-18T00:56:55.939Z,80.92
2018-06-18T00:59:25.105Z,80.94
2018-06-18T01:01:54.230Z,80.54
2018-06-18T01:04:23.361Z,80.26
2018-06-18T01:06:52.670Z,81.23
2018-06-18T01:09:21.793Z,81.26
2018-06-18T01:11:50.911Z,81.01
2018-06-18T01:14:22.089Z,80.57
2018-06-18T01:16:51.298Z,81.42
2018-06-18T01:19:27.061Z,80.85
2018-06-18T01:21:56.182Z,81.78
2018-06-18T01:25:01.705Z,81.81
2018-06-18T01:27:30.821Z,81.46
2018-06-18T01:29:59.946Z,81.37
2018-06-18T01:32:29.104Z,81.69
2018-06-18T01:34:58.237Z,81.32
2018-06-18T01:37:27.377Z,81.11
2018-06-18T01:39:56.496Z,81.69
2018-06-18T01:42:25.620Z,81.87
2018-06-18T01:44:55.692Z,81.67
2018-06-18T01:47:24.817Z,80.99
2018-06-18T01:49:53.973Z,81.39
2018-06-18T01:52:23.096Z,81.19
2018-06-18T01:54:52.209Z,81.48
2018-06-18T01:57:21.342Z,81.96
2018-06-18T01:59:50.454Z,81.54
2018-06-18T02:02:19.593Z,81.04
2018-06-18T02:04:48.717Z,81.33
2018-06-18T02:07:17.836Z,81.39
2018-06-18T02:09:46.965Z,81.06
2018-06-18T02:12:16.081Z,81.56
2018-06-18T02:14:45.454Z,81.61
2018-06-18T02:17:14.680Z,82.04
2018-06-18T02:19:43.781Z,81.40
2018-06-18T02:22:12.917Z,81.85
2018-06-18T02:24:42.064Z,81.96
2018-06-18T02:27:18.336Z,82.01
2018-06-18T02:29:53.025Z,82.29
2018-06-18T02:32:27.549Z,82.41
2018-06-18T02:35:01.934Z,81.98
2018-06-18T02:37:36.353Z,81.74
2018-06-18T02:40:10.917Z,81.62
2018-06-18T02:42:40.146Z,81.50
2018-06-18T02:45:09.280Z,81.62
2018-06-18T02:47:38.445Z,81.57
2018-06-18T02:50:07.611Z,81.18
2018-06-18T02:52:36.797Z,81.50
2018-06-18T02:55:06.811Z,81.62
2018-06-18T02:57:36.321Z,81.49
2018-06-18T03:00:05.652Z,80.61
2018-06-18T03:02:34.778Z,80.77
2018-06-18T03:05:03.925Z,81.56
2018-06-18T03:07:33.054Z,80.15
2018-06-18T03:10:02.173Z,81.09
2018-06-18T03:12:31.313Z,80.05
2018-06-18T03:15:00.457Z,80.52
2018-06-18T03:17:29.602Z,79.58
2018-06-18T03:20:03.934Z,79.99
2018-06-18T03:22:38.389Z,80.44
2018-06-18T03:25:12.805Z,80.31
2018-06-18T03:27:47.021Z,79.83
2018-06-18T03:30:16.149Z,79.99
2018-06-18T03:32:45.285Z,79.64
2018-06-18T03:35:14.427Z,80.20
2018-06-18T03:37:43.542Z,80.39
2018-06-18T03:40:12.901Z,79.33
2018-06-18T03:42:42.951Z,79.27
2018-06-18T03:45:26.256Z,79.16
2018-06-18T03:47:57.230Z,79.48
2018-06-18T03:50:26.124Z,79.36
2018-06-18T03:52:55.250Z,79.09
2018-06-18T03:55:34.522Z,78.43
2018-06-18T03:58:08.962Z,77.91
2018-06-18T04:01:59.233Z,78.33
2018-06-18T04:04:45.992Z,77.40
2018-06-18T04:07:22.901Z,77.27
2018-06-18T04:09:57.338Z,77.40
2018-06-18T04:12:26.461Z,77.13
2018-06-18T04:14:55.600Z,77.54
2018-06-18T04:17:24.730Z,77.29
2018-06-18T04:19:53.908Z,77.67
2018-06-18T04:22:23.071Z,76.58
2018-06-18T04:24:52.213Z,76.95
2018-06-18T04:27:21.572Z,76.76
2018-06-18T04:29:50.705Z,77.39
2018-06-18T04:32:19.925Z,77.17
2018-06-18T04:34:57.052Z,77.49
2018-06-18T04:37:26.191Z,77.70
2018-06-18T04:39:55.332Z,77.68
2018-06-18T04:42:29.848Z,78.10
2018-06-18T04:45:04.228Z,76.64
2018-06-18T04:47:38.693Z,76.92
2018-06-18T04:50:13.094Z,77.33
2018-06-18T04:52:42.212Z,76.79
2018-06-18T04:55:11.362Z,76.12
2018-06-18T04:57:40.473Z,75.05
2018-06-18T05:01:05.813Z,74.63
2018-06-18T05:03:34.938Z,75.29
2018-06-18T05:06:04.227Z,74.68
2018-06-18T05:09:08.005Z,75.57
2018-06-18T05:11:37.161Z,73.95
2018-06-18T05:14:06.509Z,74.08
2018-06-18T05:16:35.938Z,73.74
2018-06-18T05:19:05.434Z,73.80
2018-06-18T05:21:34.846Z,73.23
2018-06-18T05:24:04.640Z,73.48
2018-06-18T05:26:36.093Z,73.63
2018-06-18T05:29:05.014Z,73.87
2018-06-18T05:31:34.401Z,73.70
2018-06-18T05:34:03.517Z,74.26
2018-06-18T05:36:32.725Z,74.06
2018-06-18T05:39:01.846Z,72.07
2018-06-18T05:41:30.965Z,73.07
2018-06-18T05:44:00.087Z,72.21
2018-06-18T05:46:29.231Z,72.19
2018-06-18T05:48:58.378Z,72.86
2018-06-18T05:51:27.497Z,72.46
2018-06-18T05:53:56.620Z,71.78
2018-06-18T05:56:25.753Z,73.13
2018-06-18T05:58:54.889Z,72.49
2018-06-18T06:01:24.001Z,72.41
2018-06-18T06:03:53.128Z,70.50
2018-06-18T06:06:22.242Z,70.27
2018-06-18T06:08:51.373Z,69.09
2018-06-18T06:11:20.498Z,69.65
2018-06-18T06:13:49.646Z,67.24
2018-06-18T06:16:18.769Z,68.00
2018-06-18T06:18:47.893Z,66.77
2018-06-18T06:21:17.154Z,67.82
2018-06-18T06:23:46.505Z,66.45
2018-06-18T06:26:15.668Z,66.53
2018-06-18T06:28:44.793Z,65.22
2018-06-18T06:31:13.916Z,66.81
2018-06-18T06:33:43.327Z,69.05
2018-06-18T06:36:13.221Z,66.92
2018-06-18T06:38:42.636Z,66.78
2018-06-18T06:41:12.429Z,67.31
2018-06-18T06:43:41.545Z,66.26
2018-06-18T06:46:10.677Z,65.73
2018-06-18T06:48:40.043Z,67.24
2018-06-18T06:51:09.017Z,68.49
2018-06-18T06:53:38.152Z,68.79
2018-06-18T06:56:07.299Z,68.26
2018-06-18T06:58:36.417Z,68.47
2018-06-18T07:01:05.551Z,68.00
2018-06-18T07:03:34.737Z,64.85
2018-06-18T07:06:03.849Z,64.68
2018-06-18T07:08:32.969Z,66.02
2018-06-18T07:11:02.097Z,65.28
2018-06-18T07:13:31.305Z,64.93
2018-06-18T07:16:00.392Z,64.12
2018-06-18T07:18:29.279Z,63.07
2018-06-18T07:20:58.188Z,63.68
2018-06-18T07:23:27.349Z,64.86
2018-06-18T07:25:56.507Z,64.49
2018-06-18T07:28:25.617Z,64.37
2018-06-18T07:30:54.765Z,62.73
2018-06-18T07:33:23.888Z,63.74
2018-06-18T07:35:53.000Z,62.11
2018-06-18T07:38:22.138Z,63.28
2018-06-18T07:40:51.301Z,63.75
2018-06-18T07:43:20.548Z,64.02
2018-06-18T07:45:49.670Z,63.74
2018-06-18T07:48:19.095Z,63.19
2018-06-18T07:50:48.281Z,63.95
2018-06-18T07:53:17.401Z,62.86
2018-06-18T07:55:46.716Z,62.36
2018-06-18T07:58:16.019Z,60.70
2018-06-18T08:00:45.192Z,61.14
2018-06-18T08:03:15.505Z,60.62
2018-06-18T08:05:45.353Z,61.52
2018-06-18T08:08:14.779Z,59.97
2018-06-18T08:10:44.359Z,60.29
2018-06-18T08:13:13.733Z,59.90
2018-06-18T08:15:43.256Z,61.94
2018-06-18T08:18:12.682Z,60.67
2018-06-18T08:20:42.672Z,63.75
2018-06-18T08:23:13.203Z,60.77
2018-06-18T08:25:42.478Z,61.98
2018-06-18T08:28:11.880Z,61.51
2018-06-18T08:30:42.484Z,60.25
2018-06-18T08:33:12.677Z,59.71
2018-06-18T08:35:41.826Z,59.08
2018-06-18T08:38:10.949Z,60.21
2018-06-18T08:40:40.089Z,59.60
2018-06-18T08:43:09.241Z,59.39
2018-06-18T08:45:38.400Z,59.19
2018-06-18T08:48:07.538Z,57.32
2018-06-18T08:50:41.897Z,56.76
2018-06-18T08:53:16.293Z,57.07
2018-06-18T08:56:50.531Z,57.27
2018-06-18T08:59:24.914Z,58.57
2018-06-18T09:01:54.045Z,58.95
2018-06-18T09:04:28.557Z,60.50
2018-06-18T09:07:03.485Z,59.58
2018-06-18T09:09:32.616Z,58.71
2018-06-18T09:12:01.741Z,60.12
2018-06-18T09:14:30.930Z,60.21
2018-06-18T09:17:00.054Z,59.84
2018-06-18T09:19:29.223Z,59.91
2018-06-18T09:21:58.337Z,58.57
2018-06-18T09:24:34.130Z,56.91
2018-06-18T09:27:08.517Z,59.13
2018-06-18T09:29:37.849Z,59.06
2018-06-18T09:32:11.197Z,57.78
2018-06-18T09:34:40.286Z,58.90
2018-06-18T09:37:09.401Z,58.43
2018-06-18T09:39:38.529Z,57.50
2018-06-18T09:42:07.679Z,58.51
2018-06-18T09:44:36.809Z,56.46
2018-06-18T09:47:05.949Z,55.90
2018-06-18T09:49:40.512Z,56.61
2018-06-18T09:53:18.634Z,57.95
2018-06-18T09:55:53.183Z,57.18
2018-06-18T09:58:27.661Z,59.39
2018-06-18T10:01:12.625Z,58.84
2018-06-18T10:03:41.800Z,56.82
2018-06-18T10:06:10.921Z,56.57
2018-06-18T10:08:40.084Z,57.78
2018-06-18T10:11:09.182Z,59.67
2018-06-18T10:13:38.317Z,58.86
2018-06-18T10:16:08.164Z,57.05
2018-06-18T10:18:37.298Z,57.69
2018-06-18T10:21:06.749Z,54.60
2018-06-18T10:23:35.873Z,55.04
2018-06-18T10:26:05.004Z,54.91
2018-06-18T10:28:34.138Z,55.07
2018-06-18T10:31:03.480Z,54.68
2018-06-18T10:33:37.714Z,55.99
2018-06-18T10:36:12.157Z,53.68
2018-06-18T10:38:46.660Z,55.61
2018-06-18T10:41:21.091Z,54.72
2018-06-18T10:43:50.226Z,53.38
2018-06-18T10:46:19.361Z,52.79
2018-06-18T10:48:48.509Z,53.82
2018-06-18T10:51:17.638Z,53.60
2018-06-18T10:53:46.763Z,53.20
2018-06-18T10:56:15.909Z,55.25
2018-06-18T10:58:45.046Z,54.97
2018-06-18T11:01:22.085Z,53.38
2018-06-18T11:03:52.153Z,55.01
2018-06-18T11:06:26.492Z,53.16
2018-06-18T11:08:55.643Z,53.14
2018-06-18T11:11:24.532Z,52.88
2018-06-18T11:13:53.727Z,53.69
2018-06-18T11:16:23.097Z,54.04
2018-06-18T11:18:57.290Z,52.05
2018-06-18T11:21:31.662Z,53.40
2018-06-18T11:24:05.912Z,52.79
2018-06-18T11:26:40.448Z,52.76
2018-06-18T11:29:09.913Z,51.64
2018-06-18T11:31:39.126Z,52.74
2018-06-18T11:34:08.247Z,53.26
2018-06-18T11:36:37.417Z,53.76
2018-06-18T11:39:09.165Z,54.84
2018-06-18T11:41:38.303Z,52.07
2018-06-18T11:44:07.420Z,53.01
2018-06-18T11:46:36.575Z,51.03
2018-06-18T11:49:05.726Z,49.80
2018-06-18T11:51:34.834Z,53.34
2018-06-18T11:54:03.984Z,52.27
2018-06-18T11:56:33.402Z,50.26
2018-06-18T11:59:07.957Z,52.30
2018-06-18T12:01:42.449Z,51.11
2018-06-18T12:04:16.859Z,50.68
2018-06-18T12:06:51.252Z,52.03
2018-06-18T12:09:29.247Z,51.35
2018-06-18T12:11:58.370Z,51.76
2018-06-18T12:14:27.829Z,52.45
2018-06-18T12:16:57.032Z,53.48
2018-06-18T12:19:26.213Z,50.61
2018-06-18T12:21:55.344Z,50.79
2018-06-18T12:24:24.533Z,53.16
2018-06-18T12:26:53.672Z,51.10
2018-06-18T12:29:22.777Z,50.12
2018-06-18T12:31:51.911Z,49.48
2018-06-18T12:34:21.037Z,51.07
2018-06-18T12:36:50.172Z,51.60
2018-06-18T12:39:19.340Z,50.76
2018-06-18T12:41:55.541Z,50.34
2018-06-18T12:44:24.678Z,51.13
2018-06-18T12:46:59.328Z,48.89
2018-06-18T12:49:33.478Z,50.20
2018-06-18T12:52:07.760Z,49.78
2018-06-18T12:54:42.234Z,49.07
2018-06-18T12:57:11.365Z,51.03
2018-06-18T12:59:40.486Z,49.84
2018-06-18T13:02:21.982Z,51.38
2018-06-18T13:04:57.345Z,49.78
2018-06-18T13:07:27.028Z,49.77
2018-06-18T13:09:57.160Z,49.62
2018-06-18T13:12:26.715Z,48.22
2018-06-18T13:14:55.831Z,51.59
2018-06-18T13:17:25.003Z,49.55
2018-06-18T13:19:54.108Z,48.15
2018-06-18T13:22:23.257Z,50.34
2018-06-18T13:24:52.368Z,50.57
2018-06-18T13:27:25.632Z,49.67
2018-06-18T13:29:54.869Z,49.71
2018-06-18T13:32:24.025Z,48.76
2018-06-18T13:34:53.155Z,48.41
2018-06-18T13:37:27.597Z,50.03
2018-06-18T13:40:02.049Z,49.14
2018-06-18T13:42:36.470Z,49.67
2018-06-18T13:45:10.886Z,49.61
2018-06-18T13:47:45.290Z,49.02
2018-06-18T13:50:14.653Z,49.23
2018-06-18T13:52:43.887Z,50.21
2018-06-18T13:55:12.923Z,51.44
2018-06-18T13:57:42.061Z,50.07
2018-06-18T14:00:11.257Z,49.83
2018-06-18T14:02:40.412Z,49.10
2018-06-18T14:05:09.525Z,50.94
2018-06-18T14:07:38.666Z,51.86
2018-06-18T14:10:08.026Z,52.09
2018-06-18T14:12:36.928Z,51.30
2018-06-18T14:15:06.189Z,51.46
2018-06-18T14:17:35.338Z,49.58
2018-06-18T14:20:10.147Z,50.40
2018-06-18T14:22:39.274Z,50.24
2018-06-18T14:25:08.421Z,50.15
2018-06-18T14:27:37.541Z,51.18
2018-06-18T14:30:12.021Z,51.56
2018-06-18T14:32:46.513Z,50.60
2018-06-18T14:35:20.814Z,52.40
2018-06-18T14:38:58.233Z,49.91
2018-06-18T14:41:27.594Z,49.47
2018-06-18T14:43:56.722Z,48.99
2018-06-18T14:46:25.837Z,49.63
2018-06-18T14:48:54.973Z,48.17
2018-06-18T14:51:24.135Z,46.43
2018-06-18T14:53:53.478Z,46.31
2018-06-18T14:56:27.445Z,48.37
2018-06-18T14:59:11.637Z,47.79
2018-06-18T15:01:41.013Z,47.72
2018-06-18T15:04:10.130Z,49.13
2018-06-18T15:06:39.140Z,50.31
2018-06-18T15:09:11.014Z,49.28
2018-06-18T15:11:40.781Z,48.50
2018-06-18T15:14:10.138Z,49.01
2018-06-18T15:16:39.277Z,50.45
2018-06-18T15:19:08.427Z,51.83
2018-06-18T15:21:44.341Z,51.06
2018-06-18T15:24:19.661Z,49.44
2018-06-18T15:26:48.866Z,49.71
2018-06-18T15:29:17.948Z,50.94
2018-06-18T15:31:47.090Z,49.42
2018-06-18T15:34:16.216Z,49.74
2018-06-18T15:36:45.328Z,50.57
2018-06-18T15:39:14.469Z,50.24
2018-06-18T15:41:43.593Z,50.29
2018-06-18T15:44:12.757Z,48.40
2018-06-18T15:46:41.848Z,49.84
2018-06-18T15:49:11.141Z,49.45
2018-06-18T15:51:40.289Z,49.22
2018-06-18T15:54:09.408Z,51.06
2018-06-18T15:56:38.600Z,50.07
2018-06-18T15:59:07.573Z,49.70
2018-06-18T16:01:36.728Z,50.67
2018-06-18T16:04:06.117Z,49.64
2018-06-18T16:06:35.241Z,48.91
2018-06-18T16:09:06.117Z,48.06
2018-06-18T16:11:35.473Z,47.82
2018-06-18T16:14:04.637Z,47.80
2018-06-18T16:16:33.748Z,48.58
2018-06-18T16:19:02.902Z,48.79
2018-06-18T16:21:32.034Z,50.19
2018-06-18T16:24:01.453Z,50.73
2018-06-18T16:26:30.872Z,49.08
2018-06-18T16:29:00.014Z,48.81
2018-06-18T16:31:29.144Z,49.34
2018-06-18T16:33:58.320Z,50.13
2018-06-18T16:36:27.525Z,49.02
2018-06-18T16:38:56.738Z,47.96
2018-06-18T16:41:26.222Z,48.22
2018-06-18T16:43:55.501Z,49.05
2018-06-18T16:46:24.681Z,49.68
2018-06-18T16:48:53.977Z,50.32
2018-06-18T16:51:23.110Z,47.67
2018-06-18T16:53:52.454Z,49.39
2018-06-18T16:56:21.637Z,49.45
2018-06-18T16:58:50.869Z,49.14
2018-06-18T17:01:20.005Z,46.70
2018-06-18T17:03:49.130Z,48.04
2018-06-18T17:06:18.353Z,47.81
2018-06-18T17:08:47.490Z,47.88
2018-06-18T17:11:16.629Z,48.58
2018-06-18T17:13:45.993Z,48.77
2018-06-18T17:16:15.171Z,48.50
2018-06-18T17:18:44.297Z,49.04
2018-06-18T17:21:13.444Z,49.14
2018-06-18T17:23:42.622Z,49.87
2018-06-18T17:26:11.770Z,49.81
2018-06-18T17:28:41.120Z,49.94
2018-06-18T17:31:10.241Z,49.71
2018-06-18T17:33:39.898Z,50.01
2018-06-18T17:36:09.223Z,50.34
2018-06-18T17:38:38.631Z,49.67
2018-06-18T17:41:07.753Z,50.51
2018-06-18T17:43:36.872Z,50.77
2018-06-18T17:46:06.005Z,52.17
2018-06-18T17:48:35.133Z,52.02
2018-06-18T17:51:04.278Z,51.46
2018-06-18T17:53:33.421Z,51.20
2018-06-18T17:56:02.549Z,50.58
2018-06-18T17:58:31.785Z,51.84
2018-06-18T18:01:00.923Z,52.31
2018-06-18T18:03:30.065Z,51.18
2018-06-18T18:05:59.233Z,51.62
2018-06-18T18:08:28.356Z,51.30
2018-06-18T18:10:57.501Z,52.55
2018-06-18T18:13:26.665Z,51.89
2018-06-18T18:15:56.869Z,52.47
2018-06-18T18:18:26.009Z,52.73
2018-06-18T18:20:55.185Z,52.82
2018-06-18T18:23:24.573Z,55.03
2018-06-18T18:25:53.905Z,53.29
2018-06-18T18:28:23.144Z,53.28
2018-06-18T18:30:52.492Z,53.41
2018-06-18T18:33:21.702Z,53.93
2018-06-18T18:35:50.959Z,54.88
2018-06-18T18:38:20.395Z,52.59
2018-06-18T18:40:49.664Z,53.44
2018-06-18T18:43:19.009Z,53.15
2018-06-18T18:45:48.230Z,54.43
2018-06-18T18:48:17.399Z,55.53
2018-06-18T18:50:46.559Z,55.57
2018-06-18T18:53:15.877Z,56.82
2018-06-18T18:56:03.637Z,56.60
2018-06-18T18:59:40.608Z,57.54
2018-06-18T19:02:09.527Z,57.76
2018-06-18T19:04:55.605Z,57.57
2018-06-18T19:07:45.188Z,57.38
2018-06-18T19:10:28.798Z,57.17
2018-06-18T19:13:01.464Z,57.62
2018-06-18T19:15:30.669Z,57.86
2018-06-18T19:17:59.886Z,58.18
2018-06-18T19:20:36.704Z,58.23
2018-06-18T19:23:06.293Z,57.79
2018-06-18T19:25:35.860Z,58.04
2018-06-18T19:28:05.309Z,58.06
2018-06-18T19:30:35.944Z,58.55
2018-06-18T19:33:24.457Z,59.49
2018-06-18T19:35:54.365Z,59.32
2018-06-18T19:38:23.601Z,59.72
2018-06-18T19:40:52.729Z,58.92
2018-06-18T19:43:22.017Z,59.39
2018-06-18T19:45:55.655Z,59.33
2018-06-18T19:48:30.909Z,59.56
2018-06-18T19:51:00.058Z,59.82
2018-06-18T19:53:29.190Z,61.47
2018-06-18T19:55:58.381Z,60.38
2018-06-18T19:58:27.517Z,60.30
2018-06-18T20:01:01.005Z,60.91
2018-06-18T20:03:30.158Z,60.62
2018-06-18T20:05:59.416Z,60.41
2018-06-18T20:08:30.628Z,61.43
2018-06-18T20:10:59.769Z,62.17
2018-06-18T20:13:28.908Z,61.21
2018-06-18T20:15:58.229Z,62.20
2018-06-18T20:18:27.404Z,62.07
2018-06-18T20:20:56.538Z,62.12
2018-06-18T20:23:27.561Z,62.71
2018-06-18T20:26:03.818Z,63.10
2018-06-18T20:28:33.229Z,62.46
2018-06-18T20:31:02.416Z,62.24
2018-06-18T20:33:33.865Z,63.42
2018-06-18T20:36:10.214Z,63.04
2018-06-18T20:38:39.354Z,63.90
2018-06-18T20:41:09.445Z,63.34
2018-06-18T20:43:51.481Z,64.30
2018-06-18T20:46:20.592Z,63.92
2018-06-18T20:48:49.861Z,63.88
2018-06-18T20:51:19.049Z,64.22
2018-06-18T20:53:48.182Z,64.98
2018-06-18T20:56:17.357Z,65.25
2018-06-18T20:58:46.591Z,65.75
2018-06-18T21:01:15.737Z,65.56
2018-06-18T21:03:44.893Z,65.64
2018-06-18T21:06:14.160Z,65.40
2018-06-18T21:08:43.302Z,66.00
2018-06-18T21:11:12.724Z,65.30
2018-06-18T21:13:41.929Z,65.69
2018-06-18T21:16:11.120Z,65.93
2018-06-18T21:18:40.317Z,64.21
2018-06-18T21:21:09.501Z,65.84
2018-06-18T21:23:38.679Z,65.69
2018-06-18T21:26:08.025Z,66.23
2018-06-18T21:28:37.178Z,65.27
2018-06-18T21:31:06.588Z,66.57
2018-06-18T21:33:35.880Z,66.70
2018-06-18T21:36:05.105Z,65.57
2018-06-18T21:38:34.246Z,66.96
2018-06-18T21:41:03.372Z,67.00
2018-06-18T21:43:32.489Z,66.75
2018-06-18T21:46:01.674Z,66.82
2018-06-18T21:48:30.789Z,67.64
2018-06-18T21:50:59.909Z,67.21
2018-06-18T21:53:29.034Z,67.79
2018-06-18T21:55:58.153Z,68.34
2018-06-18T21:58:27.284Z,66.72
2018-06-18T22:00:56.409Z,66.94
2018-06-18T22:03:25.531Z,66.53
2018-06-18T22:05:54.669Z,65.86
2018-06-18T22:08:25.966Z,66.75
2018-06-18T22:10:55.182Z,68.15
2018-06-18T22:13:24.218Z,68.01
2018-06-18T22:15:53.337Z,68.74
2018-06-18T22:18:22.473Z,68.79
2018-06-18T22:20:51.593Z,68.54
2018-06-18T22:23:20.881Z,68.36
2018-06-18T22:25:50.026Z,68.51
2018-06-18T22:28:29.717Z,69.67
2018-06-18T22:30:58.857Z,69.02
2018-06-18T22:33:27.965Z,69.56
2018-06-18T22:35:57.108Z,68.82
2018-06-18T22:38:26.245Z,68.47
2018-06-18T22:40:55.390Z,68.21
2018-06-18T22:43:24.600Z,68.57
2018-06-18T22:45:53.732Z,68.48
2018-06-18T22:48:22.861Z,69.07
2018-06-18T22:50:52.081Z,68.39
2018-06-18T22:53:21.209Z,68.33
2018-06-18T22:55:50.345Z,68.35
2018-06-18T22:58:19.575Z,68.61
2018-06-18T23:00:52.365Z,68.54
2018-06-18T23:03:21.517Z,68.48
2018-06-18T23:05:50.643Z,68.24
2018-06-18T23:08:20.152Z,68.33
2018-06-18T23:10:49.992Z,68.80
2018-06-18T23:13:23.885Z,68.29
2018-06-18T23:15:53.005Z,68.56
2018-06-18T23:18:22.128Z,68.32
2018-06-18T23:20:51.494Z,68.56
2018-06-18T23:23:20.641Z,69.03
2018-06-18T23:25:49.773Z,69.72
2018-06-18T23:28:20.002Z,69.70
2018-06-18T23:30:49.124Z,70.60
2018-06-18T23:33:18.287Z,69.84
2018-06-18T23:35:47.428Z,69.84
2018-06-18T23:38:16.561Z,69.20
2018-06-18T23:40:45.680Z,70.50
2018-06-18T23:43:14.917Z,71.08
2018-06-18T23:45:44.033Z,70.93
2018-06-18T23:48:13.157Z,69.96
2018-06-18T23:50:42.278Z,70.65
2018-06-18T23:53:11.413Z,71.26
2018-06-18T23:55:40.530Z,70.20
2018-06-18T23:58:09.670Z,71.95
